sensor_id;sensor_type;location;lat;lon;timestamp;P1;durP1;ratioP1;P2;durP2;ratioP2
51326;SDS011;37412;52.836;6.362;2023-04-05T00:02:15;13.57;;;8.68;;
51326;SDS011;37412;52.836;6.362;2023-04-05T00:05:03;14.73;;;8.48;;
51326;SDS011;37412;52.836;6.362;2023-04-05T00:07:49;13.50;;;8.45;;
51326;SDS011;37412;52.836;6.362;2023-04-05T00:10:38;14.27;;;8.48;;
51326;SDS011;37412;52.836;6.362;2023-04-05T00:13:24;12.77;;;8.50;;
51326;SDS011;37412;52.836;6.362;2023-04-05T00:16:11;12.57;;;8.48;;
51326;SDS011;37412;52.836;6.362;2023-04-05T00:18:56;12.75;;;8.40;;
51326;SDS011;37412;52.836;6.362;2023-04-05T00:21:44;14.00;;;8.13;;
51326;SDS011;37412;52.836;6.362;2023-04-05T00:24:30;11.77;;;8.10;;
51326;SDS011;37412;52.836;6.362;2023-04-05T00:27:18;13.43;;;8.57;;
51326;SDS011;37412;52.836;6.362;2023-04-05T00:30:04;14.30;;;8.38;;
51326;SDS011;37412;52.836;6.362;2023-04-05T00:32:51;13.40;;;8.20;;
51326;SDS011;37412;52.836;6.362;2023-04-05T00:35:36;11.88;;;8.13;;
51326;SDS011;37412;52.836;6.362;2023-04-05T00:38:22;12.13;;;8.15;;
51326;SDS011;37412;52.836;6.362;2023-04-05T00:41:09;11.90;;;7.90;;
51326;SDS011;37412;52.836;6.362;2023-04-05T00:43:56;13.27;;;7.82;;
51326;SDS011;37412;52.836;6.362;2023-04-05T00:46:42;12.38;;;8.25;;
51326;SDS011;37412;52.836;6.362;2023-04-05T00:49:28;12.40;;;8.55;;
51326;SDS011;37412;52.836;6.362;2023-04-05T00:52:16;12.70;;;8.80;;
51326;SDS011;37412;52.836;6.362;2023-04-05T00:55:04;13.13;;;8.35;;
51326;SDS011;37412;52.836;6.362;2023-04-05T00:57:52;11.80;;;8.30;;
51326;SDS011;37412;52.836;6.362;2023-04-05T01:00:40;12.23;;;8.23;;
51326;SDS011;37412;52.836;6.362;2023-04-05T01:03:28;13.48;;;8.48;;
51326;SDS011;37412;52.836;6.362;2023-04-05T01:07:03;12.80;;;8.30;;
51326;SDS011;37412;52.836;6.362;2023-04-05T01:09:55;12.68;;;8.13;;
51326;SDS011;37412;52.836;6.362;2023-04-05T01:12:43;14.37;;;8.57;;
51326;SDS011;37412;52.836;6.362;2023-04-05T01:15:29;13.07;;;8.65;;
51326;SDS011;37412;52.836;6.362;2023-04-05T01:18:17;13.55;;;8.43;;
51326;SDS011;37412;52.836;6.362;2023-04-05T01:21:11;11.65;;;8.10;;
51326;SDS011;37412;52.836;6.362;2023-04-05T01:30:43;12.30;;;8.85;;
51326;SDS011;37412;52.836;6.362;2023-04-05T01:36:49;13.23;;;8.43;;
51326;SDS011;37412;52.836;6.362;2023-04-05T01:39:40;14.27;;;8.60;;
51326;SDS011;37412;52.836;6.362;2023-04-05T01:42:27;14.30;;;8.80;;
51326;SDS011;37412;52.836;6.362;2023-04-05T01:45:13;15.70;;;8.55;;
51326;SDS011;37412;52.836;6.362;2023-04-05T01:47:58;13.48;;;8.55;;
51326;SDS011;37412;52.836;6.362;2023-04-05T01:50:45;14.43;;;8.88;;
51326;SDS011;37412;52.836;6.362;2023-04-05T01:53:31;15.50;;;9.10;;
51326;SDS011;37412;52.836;6.362;2023-04-05T01:56:17;14.00;;;9.10;;
51326;SDS011;37412;52.836;6.362;2023-04-05T01:59:03;13.48;;;9.05;;
51326;SDS011;37412;52.836;6.362;2023-04-05T02:01:52;13.50;;;8.90;;
51326;SDS011;37412;52.836;6.362;2023-04-05T02:04:37;13.27;;;9.07;;
51326;SDS011;37412;52.836;6.362;2023-04-05T02:07:23;14.63;;;9.18;;
51326;SDS011;37412;52.836;6.362;2023-04-05T02:10:11;13.27;;;8.90;;
51326;SDS011;37412;52.836;6.362;2023-04-05T02:12:57;12.15;;;8.88;;
51326;SDS011;37412;52.836;6.362;2023-04-05T02:15:46;13.25;;;9.00;;
51326;SDS011;37412;52.836;6.362;2023-04-05T02:18:33;14.27;;;9.00;;
51326;SDS011;37412;52.836;6.362;2023-04-05T02:21:23;13.88;;;9.18;;
51326;SDS011;37412;52.836;6.362;2023-04-05T02:24:10;14.15;;;9.32;;
51326;SDS011;37412;52.836;6.362;2023-04-05T02:26:56;14.38;;;9.32;;
51326;SDS011;37412;52.836;6.362;2023-04-05T02:29:43;14.80;;;9.65;;
51326;SDS011;37412;52.836;6.362;2023-04-05T02:32:29;16.92;;;9.63;;
51326;SDS011;37412;52.836;6.362;2023-04-05T02:35:16;12.40;;;9.05;;
51326;SDS011;37412;52.836;6.362;2023-04-05T02:38:02;15.20;;;9.60;;
51326;SDS011;37412;52.836;6.362;2023-04-05T02:40:49;13.85;;;9.38;;
51326;SDS011;37412;52.836;6.362;2023-04-05T02:43:35;14.88;;;9.90;;
51326;SDS011;37412;52.836;6.362;2023-04-05T02:46:20;13.52;;;9.18;;
51326;SDS011;37412;52.836;6.362;2023-04-05T02:49:06;16.40;;;10.57;;
51326;SDS011;37412;52.836;6.362;2023-04-05T02:51:52;16.45;;;10.50;;
51326;SDS011;37412;52.836;6.362;2023-04-05T02:54:40;15.80;;;10.88;;
51326;SDS011;37412;52.836;6.362;2023-04-05T02:57:26;17.05;;;10.73;;
51326;SDS011;37412;52.836;6.362;2023-04-05T03:00:12;14.95;;;10.55;;
51326;SDS011;37412;52.836;6.362;2023-04-05T03:02:58;15.15;;;10.30;;
51326;SDS011;37412;52.836;6.362;2023-04-05T03:05:44;13.27;;;9.77;;
51326;SDS011;37412;52.836;6.362;2023-04-05T03:08:31;11.32;;;8.07;;
51326;SDS011;37412;52.836;6.362;2023-04-05T03:11:17;13.30;;;8.15;;
51326;SDS011;37412;52.836;6.362;2023-04-05T03:14:03;13.60;;;7.78;;
51326;SDS011;37412;52.836;6.362;2023-04-05T03:16:49;12.88;;;7.78;;
51326;SDS011;37412;52.836;6.362;2023-04-05T03:19:35;11.30;;;7.45;;
51326;SDS011;37412;52.836;6.362;2023-04-05T03:22:20;14.20;;;8.05;;
51326;SDS011;37412;52.836;6.362;2023-04-05T03:25:06;13.73;;;7.47;;
51326;SDS011;37412;52.836;6.362;2023-04-05T03:27:52;14.73;;;8.18;;
51326;SDS011;37412;52.836;6.362;2023-04-05T03:30:39;12.95;;;8.15;;
51326;SDS011;37412;52.836;6.362;2023-04-05T03:33:25;13.65;;;8.13;;
51326;SDS011;37412;52.836;6.362;2023-04-05T03:36:11;13.65;;;8.40;;
51326;SDS011;37412;52.836;6.362;2023-04-05T03:39:00;16.42;;;8.50;;
51326;SDS011;37412;52.836;6.362;2023-04-05T03:41:46;12.57;;;8.18;;
51326;SDS011;37412;52.836;6.362;2023-04-05T03:44:32;14.80;;;7.93;;
51326;SDS011;37412;52.836;6.362;2023-04-05T03:47:18;17.13;;;9.13;;
51326;SDS011;37412;52.836;6.362;2023-04-05T03:50:04;13.68;;;8.35;;
51326;SDS011;37412;52.836;6.362;2023-04-05T03:52:54;15.52;;;9.30;;
51326;SDS011;37412;52.836;6.362;2023-04-05T03:55:39;16.63;;;8.35;;
51326;SDS011;37412;52.836;6.362;2023-04-05T03:58:27;14.98;;;8.32;;
51326;SDS011;37412;52.836;6.362;2023-04-05T04:01:14;17.08;;;9.35;;
51326;SDS011;37412;52.836;6.362;2023-04-05T04:04:00;15.73;;;8.73;;
51326;SDS011;37412;52.836;6.362;2023-04-05T04:06:45;15.60;;;8.45;;
51326;SDS011;37412;52.836;6.362;2023-04-05T04:09:32;14.07;;;8.45;;
51326;SDS011;37412;52.836;6.362;2023-04-05T04:12:17;15.38;;;8.95;;
51326;SDS011;37412;52.836;6.362;2023-04-05T04:15:03;17.00;;;9.25;;
51326;SDS011;37412;52.836;6.362;2023-04-05T04:17:50;16.92;;;9.02;;
51326;SDS011;37412;52.836;6.362;2023-04-05T04:20:36;16.48;;;9.38;;
51326;SDS011;37412;52.836;6.362;2023-04-05T04:23:22;22.48;;;13.32;;
51326;SDS011;37412;52.836;6.362;2023-04-05T04:26:09;30.30;;;15.63;;
51326;SDS011;37412;52.836;6.362;2023-04-05T04:28:56;25.65;;;13.55;;
51326;SDS011;37412;52.836;6.362;2023-04-05T04:31:42;21.90;;;12.57;;
51326;SDS011;37412;52.836;6.362;2023-04-05T04:34:33;18.15;;;11.32;;
51326;SDS011;37412;52.836;6.362;2023-04-05T04:37:19;17.52;;;10.48;;
51326;SDS011;37412;52.836;6.362;2023-04-05T04:40:07;20.30;;;11.00;;
51326;SDS011;37412;52.836;6.362;2023-04-05T04:42:55;24.23;;;11.15;;
51326;SDS011;37412;52.836;6.362;2023-04-05T04:45:43;21.08;;;10.40;;
51326;SDS011;37412;52.836;6.362;2023-04-05T04:48:32;19.27;;;9.70;;
51326;SDS011;37412;52.836;6.362;2023-04-05T04:51:18;14.70;;;8.80;;
51326;SDS011;37412;52.836;6.362;2023-04-05T04:54:04;22.38;;;10.45;;
51326;SDS011;37412;52.836;6.362;2023-04-05T04:56:50;19.17;;;10.57;;
51326;SDS011;37412;52.836;6.362;2023-04-05T04:59:36;38.83;;;19.45;;
51326;SDS011;37412;52.836;6.362;2023-04-05T05:02:23;35.53;;;18.75;;
51326;SDS011;37412;52.836;6.362;2023-04-05T05:05:10;17.13;;;9.68;;
51326;SDS011;37412;52.836;6.362;2023-04-05T05:07:56;18.60;;;11.02;;
51326;SDS011;37412;52.836;6.362;2023-04-05T05:10:42;16.90;;;10.05;;
51326;SDS011;37412;52.836;6.362;2023-04-05T05:13:29;18.27;;;10.93;;
51326;SDS011;37412;52.836;6.362;2023-04-05T05:16:16;17.35;;;10.55;;
51326;SDS011;37412;52.836;6.362;2023-04-05T05:19:03;14.60;;;9.45;;
51326;SDS011;37412;52.836;6.362;2023-04-05T05:21:49;17.00;;;9.10;;
51326;SDS011;37412;52.836;6.362;2023-04-05T05:24:36;18.80;;;10.10;;
51326;SDS011;37412;52.836;6.362;2023-04-05T05:27:22;17.05;;;10.35;;
51326;SDS011;37412;52.836;6.362;2023-04-05T05:30:08;20.85;;;11.52;;
51326;SDS011;37412;52.836;6.362;2023-04-05T05:32:55;26.85;;;15.20;;
51326;SDS011;37412;52.836;6.362;2023-04-05T05:35:42;29.10;;;17.23;;
51326;SDS011;37412;52.836;6.362;2023-04-05T05:38:28;42.92;;;23.00;;
51326;SDS011;37412;52.836;6.362;2023-04-05T05:41:14;52.55;;;25.73;;
51326;SDS011;37412;52.836;6.362;2023-04-05T05:44:00;46.72;;;23.75;;
51326;SDS011;37412;52.836;6.362;2023-04-05T05:46:46;39.30;;;20.88;;
51326;SDS011;37412;52.836;6.362;2023-04-05T05:49:32;29.23;;;17.95;;
51326;SDS011;37412;52.836;6.362;2023-04-05T05:52:18;31.67;;;17.73;;
51326;SDS011;37412;52.836;6.362;2023-04-05T05:55:04;25.52;;;14.63;;
51326;SDS011;37412;52.836;6.362;2023-04-05T05:57:50;20.15;;;12.98;;
51326;SDS011;37412;52.836;6.362;2023-04-05T06:00:37;19.40;;;12.63;;
51326;SDS011;37412;52.836;6.362;2023-04-05T06:03:23;27.98;;;14.90;;
51326;SDS011;37412;52.836;6.362;2023-04-05T06:06:16;27.52;;;15.05;;
51326;SDS011;37412;52.836;6.362;2023-04-05T06:09:02;30.73;;;16.20;;
51326;SDS011;37412;52.836;6.362;2023-04-05T06:11:51;33.25;;;18.15;;
51326;SDS011;37412;52.836;6.362;2023-04-05T06:14:38;27.45;;;14.52;;
51326;SDS011;37412;52.836;6.362;2023-04-05T06:17:25;25.48;;;15.40;;
51326;SDS011;37412;52.836;6.362;2023-04-05T06:20:11;23.48;;;13.73;;
51326;SDS011;37412;52.836;6.362;2023-04-05T06:22:57;24.45;;;14.95;;
51326;SDS011;37412;52.836;6.362;2023-04-05T06:25:43;26.95;;;14.95;;
51326;SDS011;37412;52.836;6.362;2023-04-05T06:28:29;25.40;;;14.77;;
51326;SDS011;37412;52.836;6.362;2023-04-05T06:34:32;24.25;;;15.00;;
51326;SDS011;37412;52.836;6.362;2023-04-05T06:37:18;26.15;;;15.27;;
51326;SDS011;37412;52.836;6.362;2023-04-05T06:40:04;26.88;;;15.38;;
51326;SDS011;37412;52.836;6.362;2023-04-05T06:42:51;28.67;;;16.23;;
51326;SDS011;37412;52.836;6.362;2023-04-05T06:45:37;26.15;;;15.43;;
51326;SDS011;37412;52.836;6.362;2023-04-05T06:48:27;25.98;;;16.13;;
51326;SDS011;37412;52.836;6.362;2023-04-05T06:51:13;24.65;;;14.40;;
51326;SDS011;37412;52.836;6.362;2023-04-05T06:53:59;21.35;;;14.30;;
51326;SDS011;37412;52.836;6.362;2023-04-05T06:56:45;21.15;;;13.00;;
51326;SDS011;37412;52.836;6.362;2023-04-05T06:59:31;19.95;;;12.50;;
51326;SDS011;37412;52.836;6.362;2023-04-05T07:02:17;19.23;;;12.25;;
51326;SDS011;37412;52.836;6.362;2023-04-05T07:05:04;22.60;;;13.68;;
51326;SDS011;37412;52.836;6.362;2023-04-05T07:07:50;24.02;;;14.40;;
51326;SDS011;37412;52.836;6.362;2023-04-05T07:10:38;21.23;;;13.50;;
51326;SDS011;37412;52.836;6.362;2023-04-05T07:13:25;21.42;;;13.93;;
51326;SDS011;37412;52.836;6.362;2023-04-05T07:16:11;18.48;;;13.02;;
51326;SDS011;37412;52.836;6.362;2023-04-05T07:18:57;25.75;;;13.25;;
51326;SDS011;37412;52.836;6.362;2023-04-05T07:21:43;21.85;;;13.15;;
51326;SDS011;37412;52.836;6.362;2023-04-05T07:24:29;22.25;;;14.35;;
51326;SDS011;37412;52.836;6.362;2023-04-05T07:27:15;20.15;;;14.10;;
51326;SDS011;37412;52.836;6.362;2023-04-05T07:30:01;18.17;;;12.68;;
51326;SDS011;37412;52.836;6.362;2023-04-05T07:32:47;20.50;;;13.35;;
51326;SDS011;37412;52.836;6.362;2023-04-05T07:35:32;18.65;;;13.50;;
51326;SDS011;37412;52.836;6.362;2023-04-05T07:38:19;21.77;;;13.48;;
51326;SDS011;37412;52.836;6.362;2023-04-05T07:41:05;18.67;;;12.50;;
51326;SDS011;37412;52.836;6.362;2023-04-05T07:43:53;17.63;;;13.13;;
51326;SDS011;37412;52.836;6.362;2023-04-05T07:46:39;17.02;;;11.85;;
51326;SDS011;37412;52.836;6.362;2023-04-05T07:52:15;15.98;;;11.30;;
51326;SDS011;37412;52.836;6.362;2023-04-05T07:55:01;15.90;;;10.68;;
51326;SDS011;37412;52.836;6.362;2023-04-05T07:57:47;14.65;;;10.50;;
51326;SDS011;37412;52.836;6.362;2023-04-05T08:00:33;11.15;;;9.65;;
51326;SDS011;37412;52.836;6.362;2023-04-05T08:03:19;13.73;;;10.35;;
51326;SDS011;37412;52.836;6.362;2023-04-05T08:08:57;14.43;;;9.63;;
51326;SDS011;37412;52.836;6.362;2023-04-05T08:11:43;10.65;;;8.40;;
51326;SDS011;37412;52.836;6.362;2023-04-05T08:14:29;15.38;;;9.45;;
51326;SDS011;37412;52.836;6.362;2023-04-05T08:17:15;12.65;;;9.38;;
51326;SDS011;37412;52.836;6.362;2023-04-05T08:20:02;10.15;;;8.30;;
51326;SDS011;37412;52.836;6.362;2023-04-05T08:22:48;11.45;;;7.72;;
51326;SDS011;37412;52.836;6.362;2023-04-05T08:31:06;11.48;;;7.10;;
51326;SDS011;37412;52.836;6.362;2023-04-05T08:33:52;8.65;;;6.53;;
51326;SDS011;37412;52.836;6.362;2023-04-05T08:36:38;9.63;;;6.35;;
51326;SDS011;37412;52.836;6.362;2023-04-05T08:39:24;9.95;;;6.72;;
51326;SDS011;37412;52.836;6.362;2023-04-05T08:42:17;7.28;;;5.93;;
51326;SDS011;37412;52.836;6.362;2023-04-05T08:45:12;11.02;;;6.30;;
51326;SDS011;37412;52.836;6.362;2023-04-05T08:48:02;9.73;;;6.22;;
51326;SDS011;37412;52.836;6.362;2023-04-05T08:50:52;7.85;;;5.80;;
51326;SDS011;37412;52.836;6.362;2023-04-05T08:53:40;8.50;;;5.90;;
51326;SDS011;37412;52.836;6.362;2023-04-05T08:56:27;8.20;;;5.65;;
51326;SDS011;37412;52.836;6.362;2023-04-05T08:59:18;8.25;;;5.70;;
51326;SDS011;37412;52.836;6.362;2023-04-05T09:02:07;7.85;;;5.88;;
51326;SDS011;37412;52.836;6.362;2023-04-05T09:05:01;7.13;;;5.07;;
51326;SDS011;37412;52.836;6.362;2023-04-05T09:07:48;7.93;;;5.55;;
51326;SDS011;37412;52.836;6.362;2023-04-05T09:10:35;6.55;;;4.70;;
51326;SDS011;37412;52.836;6.362;2023-04-05T09:13:21;6.65;;;4.90;;
51326;SDS011;37412;52.836;6.362;2023-04-05T09:16:07;7.88;;;5.13;;
51326;SDS011;37412;52.836;6.362;2023-04-05T09:18:53;6.32;;;4.55;;
51326;SDS011;37412;52.836;6.362;2023-04-05T09:21:58;8.05;;;5.40;;
51326;SDS011;37412;52.836;6.362;2023-04-05T09:24:45;12.02;;;5.30;;
51326;SDS011;37412;52.836;6.362;2023-04-05T09:27:31;9.38;;;5.70;;
51326;SDS011;37412;52.836;6.362;2023-04-05T09:30:21;6.90;;;5.28;;
51326;SDS011;37412;52.836;6.362;2023-04-05T09:33:07;7.35;;;4.93;;
51326;SDS011;37412;52.836;6.362;2023-04-05T09:35:54;8.15;;;5.35;;
51326;SDS011;37412;52.836;6.362;2023-04-05T09:38:41;9.32;;;5.53;;
51326;SDS011;37412;52.836;6.362;2023-04-05T09:41:28;8.05;;;5.00;;
51326;SDS011;37412;52.836;6.362;2023-04-05T09:44:14;7.47;;;4.70;;
51326;SDS011;37412;52.836;6.362;2023-04-05T09:47:12;7.07;;;4.70;;
51326;SDS011;37412;52.836;6.362;2023-04-05T09:50:00;7.57;;;5.00;;
51326;SDS011;37412;52.836;6.362;2023-04-05T09:52:50;7.28;;;4.95;;
51326;SDS011;37412;52.836;6.362;2023-04-05T09:55:50;7.45;;;5.47;;
51326;SDS011;37412;52.836;6.362;2023-04-05T09:58:36;8.25;;;5.78;;
51326;SDS011;37412;52.836;6.362;2023-04-05T10:01:24;8.23;;;5.30;;
51326;SDS011;37412;52.836;6.362;2023-04-05T17:49:49;8.35;;;4.53;;
51326;SDS011;37412;52.836;6.362;2023-04-05T17:52:35;6.78;;;4.50;;
51326;SDS011;37412;52.836;6.362;2023-04-05T17:55:21;9.02;;;4.88;;
51326;SDS011;37412;52.836;6.362;2023-04-05T17:58:06;5.90;;;4.53;;
51326;SDS011;37412;52.836;6.362;2023-04-05T18:00:52;11.10;;;4.97;;
51326;SDS011;37412;52.836;6.362;2023-04-05T18:03:38;5.85;;;4.50;;
51326;SDS011;37412;52.836;6.362;2023-04-05T18:06:25;6.43;;;4.53;;
51326;SDS011;37412;52.836;6.362;2023-04-05T18:09:11;8.13;;;4.88;;
51326;SDS011;37412;52.836;6.362;2023-04-05T18:11:57;7.68;;;5.05;;
51326;SDS011;37412;52.836;6.362;2023-04-05T18:14:44;7.18;;;5.43;;
51326;SDS011;37412;52.836;6.362;2023-04-05T18:17:30;8.27;;;5.50;;
51326;SDS011;37412;52.836;6.362;2023-04-05T18:20:16;8.40;;;5.90;;
51326;SDS011;37412;52.836;6.362;2023-04-05T18:23:02;13.80;;;6.10;;
51326;SDS011;37412;52.836;6.362;2023-04-05T18:25:48;9.63;;;6.03;;
51326;SDS011;37412;52.836;6.362;2023-04-05T18:28:34;7.30;;;5.63;;
51326;SDS011;37412;52.836;6.362;2023-04-05T18:31:19;9.43;;;5.95;;
51326;SDS011;37412;52.836;6.362;2023-04-05T18:34:05;7.63;;;5.65;;
51326;SDS011;37412;52.836;6.362;2023-04-05T18:36:51;8.50;;;6.43;;
51326;SDS011;37412;52.836;6.362;2023-04-05T18:39:37;11.02;;;7.30;;
51326;SDS011;37412;52.836;6.362;2023-04-05T18:42:23;10.82;;;8.20;;
51326;SDS011;37412;52.836;6.362;2023-04-05T18:45:09;11.35;;;8.18;;
51326;SDS011;37412;52.836;6.362;2023-04-05T18:47:56;11.75;;;9.00;;
51326;SDS011;37412;52.836;6.362;2023-04-05T18:50:42;15.82;;;11.60;;
51326;SDS011;37412;52.836;6.362;2023-04-05T18:53:28;15.63;;;10.80;;
51326;SDS011;37412;52.836;6.362;2023-04-05T18:56:14;14.18;;;10.57;;
51326;SDS011;37412;52.836;6.362;2023-04-05T18:59:00;12.15;;;9.18;;
51326;SDS011;37412;52.836;6.362;2023-04-05T19:01:46;11.55;;;9.10;;
51326;SDS011;37412;52.836;6.362;2023-04-05T19:04:31;11.93;;;8.15;;
51326;SDS011;37412;52.836;6.362;2023-04-05T19:07:18;13.35;;;7.75;;
51326;SDS011;37412;52.836;6.362;2023-04-05T19:10:04;11.48;;;8.40;;
51326;SDS011;37412;52.836;6.362;2023-04-05T19:12:51;10.77;;;7.78;;
51326;SDS011;37412;52.836;6.362;2023-04-05T19:15:37;13.45;;;8.43;;
51326;SDS011;37412;52.836;6.362;2023-04-05T19:18:23;14.82;;;8.57;;
51326;SDS011;37412;52.836;6.362;2023-04-05T19:21:12;16.25;;;9.70;;
51326;SDS011;37412;52.836;6.362;2023-04-05T19:23:58;17.20;;;10.35;;
51326;SDS011;37412;52.836;6.362;2023-04-05T19:26:44;13.18;;;8.63;;
51326;SDS011;37412;52.836;6.362;2023-04-05T19:29:30;16.25;;;8.95;;
51326;SDS011;37412;52.836;6.362;2023-04-05T19:32:18;16.85;;;9.43;;
51326;SDS011;37412;52.836;6.362;2023-04-05T19:35:05;37.47;;;18.60;;
51326;SDS011;37412;52.836;6.362;2023-04-05T19:37:53;42.88;;;22.33;;
51326;SDS011;37412;52.836;6.362;2023-04-05T19:40:39;39.63;;;21.42;;
51326;SDS011;37412;52.836;6.362;2023-04-05T19:43:26;25.13;;;14.27;;
51326;SDS011;37412;52.836;6.362;2023-04-05T19:46:15;18.80;;;11.90;;
51326;SDS011;37412;52.836;6.362;2023-04-05T19:49:07;14.07;;;9.48;;
51326;SDS011;37412;52.836;6.362;2023-04-05T19:51:55;15.18;;;9.13;;
51326;SDS011;37412;52.836;6.362;2023-04-05T19:54:41;12.43;;;8.35;;
51326;SDS011;37412;52.836;6.362;2023-04-05T19:57:28;14.02;;;9.23;;
51326;SDS011;37412;52.836;6.362;2023-04-05T20:00:32;14.95;;;9.85;;
51326;SDS011;37412;52.836;6.362;2023-04-05T20:03:38;17.63;;;10.88;;
51326;SDS011;37412;52.836;6.362;2023-04-05T20:06:26;17.55;;;11.48;;
51326;SDS011;37412;52.836;6.362;2023-04-05T20:09:17;18.23;;;9.88;;
51326;SDS011;37412;52.836;6.362;2023-04-05T20:12:07;17.00;;;9.63;;
51326;SDS011;37412;52.836;6.362;2023-04-05T20:14:53;16.45;;;10.90;;
51326;SDS011;37412;52.836;6.362;2023-04-05T20:17:40;18.30;;;11.27;;
51326;SDS011;37412;52.836;6.362;2023-04-05T20:20:27;13.57;;;10.57;;
51326;SDS011;37412;52.836;6.362;2023-04-05T20:23:13;18.33;;;11.80;;
51326;SDS011;37412;52.836;6.362;2023-04-05T20:26:03;20.65;;;12.88;;
51326;SDS011;37412;52.836;6.362;2023-04-05T20:28:51;19.08;;;11.88;;
51326;SDS011;37412;52.836;6.362;2023-04-05T20:31:38;16.95;;;11.10;;
51326;SDS011;37412;52.836;6.362;2023-04-05T20:34:31;17.23;;;10.95;;
51326;SDS011;37412;52.836;6.362;2023-04-05T20:37:18;15.63;;;9.43;;
51326;SDS011;37412;52.836;6.362;2023-04-05T20:40:05;15.05;;;10.13;;
51326;SDS011;37412;52.836;6.362;2023-04-05T20:42:51;14.27;;;9.73;;
51326;SDS011;37412;52.836;6.362;2023-04-05T20:45:37;18.08;;;11.23;;
51326;SDS011;37412;52.836;6.362;2023-04-05T20:48:23;18.50;;;10.30;;
51326;SDS011;37412;52.836;6.362;2023-04-05T20:51:09;15.73;;;10.15;;
51326;SDS011;37412;52.836;6.362;2023-04-05T20:53:55;14.77;;;10.98;;
51326;SDS011;37412;52.836;6.362;2023-04-05T20:56:41;17.15;;;10.65;;
51326;SDS011;37412;52.836;6.362;2023-04-05T20:59:27;12.60;;;8.82;;
51326;SDS011;37412;52.836;6.362;2023-04-05T21:02:13;14.38;;;11.00;;
51326;SDS011;37412;52.836;6.362;2023-04-05T21:04:59;17.05;;;11.05;;
51326;SDS011;37412;52.836;6.362;2023-04-05T21:07:47;15.70;;;10.45;;
51326;SDS011;37412;52.836;6.362;2023-04-05T21:10:33;16.92;;;10.35;;
51326;SDS011;37412;52.836;6.362;2023-04-05T21:13:19;15.40;;;9.32;;
51326;SDS011;37412;52.836;6.362;2023-04-05T21:16:06;15.82;;;10.00;;
51326;SDS011;37412;52.836;6.362;2023-04-05T21:18:52;13.30;;;9.43;;
51326;SDS011;37412;52.836;6.362;2023-04-05T21:21:38;15.43;;;8.60;;
51326;SDS011;37412;52.836;6.362;2023-04-05T21:24:23;11.60;;;8.27;;
51326;SDS011;37412;52.836;6.362;2023-04-05T21:27:09;13.18;;;8.50;;
51326;SDS011;37412;52.836;6.362;2023-04-05T21:29:55;12.90;;;8.18;;
51326;SDS011;37412;52.836;6.362;2023-04-05T21:32:41;14.55;;;8.60;;
51326;SDS011;37412;52.836;6.362;2023-04-05T21:35:28;15.73;;;8.68;;
51326;SDS011;37412;52.836;6.362;2023-04-05T21:38:14;14.57;;;8.07;;
51326;SDS011;37412;52.836;6.362;2023-04-05T21:41:00;13.85;;;7.78;;
51326;SDS011;37412;52.836;6.362;2023-04-05T21:43:47;11.55;;;8.20;;
51326;SDS011;37412;52.836;6.362;2023-04-05T21:46:36;17.15;;;8.02;;
51326;SDS011;37412;52.836;6.362;2023-04-05T21:49:22;14.45;;;8.18;;
51326;SDS011;37412;52.836;6.362;2023-04-05T21:52:08;11.82;;;7.90;;
51326;SDS011;37412;52.836;6.362;2023-04-05T21:54:54;11.32;;;6.70;;
51326;SDS011;37412;52.836;6.362;2023-04-05T21:57:40;9.57;;;6.80;;
51326;SDS011;37412;52.836;6.362;2023-04-05T22:00:26;12.32;;;7.00;;
51326;SDS011;37412;52.836;6.362;2023-04-05T22:03:12;11.57;;;6.85;;
51326;SDS011;37412;52.836;6.362;2023-04-05T22:05:59;9.68;;;7.00;;
51326;SDS011;37412;52.836;6.362;2023-04-05T22:08:45;10.40;;;6.63;;
51326;SDS011;37412;52.836;6.362;2023-04-05T22:11:31;11.07;;;6.43;;
51326;SDS011;37412;52.836;6.362;2023-04-05T22:14:17;9.80;;;6.75;;
51326;SDS011;37412;52.836;6.362;2023-04-05T22:17:03;15.23;;;6.78;;
51326;SDS011;37412;52.836;6.362;2023-04-05T22:19:49;10.43;;;6.90;;
51326;SDS011;37412;52.836;6.362;2023-04-05T22:22:35;10.55;;;7.05;;
51326;SDS011;37412;52.836;6.362;2023-04-05T22:25:21;10.13;;;6.53;;
51326;SDS011;37412;52.836;6.362;2023-04-05T22:28:07;9.70;;;7.20;;
51326;SDS011;37412;52.836;6.362;2023-04-05T22:30:53;11.48;;;6.63;;
51326;SDS011;37412;52.836;6.362;2023-04-05T22:33:39;10.23;;;6.18;;
51326;SDS011;37412;52.836;6.362;2023-04-05T22:36:25;9.60;;;6.50;;
51326;SDS011;37412;52.836;6.362;2023-04-05T22:39:11;8.93;;;5.65;;
51326;SDS011;37412;52.836;6.362;2023-04-05T22:41:58;8.18;;;5.95;;
51326;SDS011;37412;52.836;6.362;2023-04-05T22:44:44;9.48;;;6.63;;
51326;SDS011;37412;52.836;6.362;2023-04-05T22:47:30;9.68;;;6.68;;
51326;SDS011;37412;52.836;6.362;2023-04-05T22:50:15;11.40;;;6.80;;
51326;SDS011;37412;52.836;6.362;2023-04-05T22:53:01;8.95;;;6.40;;
51326;SDS011;37412;52.836;6.362;2023-04-05T22:55:47;9.32;;;6.00;;
51326;SDS011;37412;52.836;6.362;2023-04-05T22:58:33;10.50;;;6.40;;
51326;SDS011;37412;52.836;6.362;2023-04-05T23:01:19;8.52;;;6.50;;
51326;SDS011;37412;52.836;6.362;2023-04-05T23:04:05;10.57;;;6.72;;
51326;SDS011;37412;52.836;6.362;2023-04-05T23:06:51;7.45;;;5.82;;
51326;SDS011;37412;52.836;6.362;2023-04-05T23:09:37;7.65;;;6.15;;
51326;SDS011;37412;52.836;6.362;2023-04-05T23:12:23;8.27;;;6.15;;
51326;SDS011;37412;52.836;6.362;2023-04-05T23:15:09;9.93;;;6.30;;
51326;SDS011;37412;52.836;6.362;2023-04-05T23:17:55;7.53;;;6.70;;
51326;SDS011;37412;52.836;6.362;2023-04-05T23:20:41;8.60;;;6.28;;
51326;SDS011;37412;52.836;6.362;2023-04-05T23:23:29;10.63;;;6.50;;
51326;SDS011;37412;52.836;6.362;2023-04-05T23:26:15;8.35;;;6.45;;
51326;SDS011;37412;52.836;6.362;2023-04-05T23:29:00;7.63;;;5.57;;
51326;SDS011;37412;52.836;6.362;2023-04-05T23:31:46;9.18;;;6.50;;
51326;SDS011;37412;52.836;6.362;2023-04-05T23:34:32;8.05;;;6.00;;
51326;SDS011;37412;52.836;6.362;2023-04-05T23:37:18;9.80;;;6.18;;
51326;SDS011;37412;52.836;6.362;2023-04-05T23:40:04;8.10;;;6.55;;
51326;SDS011;37412;52.836;6.362;2023-04-05T23:42:51;9.55;;;6.43;;
51326;SDS011;37412;52.836;6.362;2023-04-05T23:45:37;8.18;;;6.40;;
51326;SDS011;37412;52.836;6.362;2023-04-05T23:48:23;9.02;;;6.32;;
51326;SDS011;37412;52.836;6.362;2023-04-05T23:51:09;9.63;;;6.40;;
51326;SDS011;37412;52.836;6.362;2023-04-05T23:53:55;10.38;;;7.20;;
51326;SDS011;37412;52.836;6.362;2023-04-05T23:56:41;8.60;;;6.90;;
51326;SDS011;37412;52.836;6.362;2023-04-05T23:59:30;7.82;;;6.93;;
